Terminal Aerodrome Forecast
Issued by NWS

Home | Current Version | Previous Version | Text Only | Print | Product List | Glossary On
Versions: 1 2 3 4 5 6 7 8 9 10 11 12 13 14 15 16 17 18 19 20 21 22 23
000
FTUS41 KALY 262342
TAFPSF
TAF
KPSF 262342Z 2700/2724 09004KT P6SM OVC025
     FM270300 11007KT P6SM VCSH OVC015
     FM270700 12008KT 2SM -FZRA BR OVC008
     FM271100 12008KT 2SM -RA BR OVC007 WS020/16035KT
     FM271800 18007KT 4SM BR OVC006 PROB30 2718/2722 2SM -RA OVC003=

USA.gov is the U.S. government's official web portal to all federal, state and local government web resources and services.